Dolton, South Dakota
Current Conditions -  °F | °C
As of 6:53 PM on Monday 26 Jan 2015 (Local Time) from KMHE Reporting Station
Clear Clear  
Wind Chill: 36°   Ceiling: Unl
Heat Index: 40°   Visibility: 10mi
Dew Point: 34°   Wind: 6mph
Humidity: 79%   Direction: 270°W
Pressure: 30.01"   Gusts: NA
Location:  43.5669°N, 97.5001°W
Report Text: KMHE 270053Z AUTO 27005KT 10SM CLR 04/01 A3001 RMK AO2 SLP172 T00440011
Loading
Personal Weather Stations






























Interactive Weather Map New forecast layout! Learn more

10-Day Weather Forecast

Advertisements
Track Severe Weather on mobile